Time;durP1;ratioP1;P1;durP2;ratioP2;P2;SDS_P1;SDS_P2;PMS_P1;PMS_P2;Temp;Humidity;BMP_temperature;BMP_pressure;BME280_temperature;BME280_humidity;BME280_pressure;Samples;Min_cycle;Max_cycle;Signal;HPM_P1;HPM_P2
2022/10/11 00:00:23;;;;;;;6.55;5.70;;;15.60;99.90;;;;;;5031981;28;20240;-63
2022/10/11 00:02:49;;;;;;;10.70;5.78;;;15.40;99.90;;;;;;5033011;28;20946;-62
2022/10/11 00:05:15;;;;;;;7.93;5.50;;;15.40;99.90;;;;;;5032542;28;20217;-63
2022/10/11 00:07:41;;;;;;;7.15;5.25;;;15.60;99.90;;;;;;5029090;28;20569;-62
2022/10/11 00:10:08;;;;;;;12.10;6.97;;;15.50;99.90;;;;;;5032200;28;20221;-62
2022/10/11 00:12:34;;;;;;;9.38;5.93;;;15.60;99.90;;;;;;5031555;28;21160;-62
2022/10/11 00:15:00;;;;;;;9.27;5.95;;;15.30;99.90;;;;;;5032936;28;20186;-63
2022/10/11 00:17:26;;;;;;;5.40;4.90;;;15.30;99.90;;;;;;5031177;28;20209;-62
2022/10/11 00:19:51;;;;;;;6.67;5.93;;;15.40;99.90;;;;;;5030864;28;20193;-62
2022/10/11 00:22:17;;;;;;;7.13;6.20;;;15.20;99.90;;;;;;5032805;28;20197;-63
2022/10/11 00:24:42;;;;;;;8.93;6.50;;;15.20;99.90;;;;;;5031134;28;20216;-63
2022/10/11 00:27:08;;;;;;;11.10;6.00;;;15.10;99.90;;;;;;5027243;28;20218;-63
2022/10/11 00:29:34;;;;;;;11.70;6.93;;;15.00;99.90;;;;;;5032263;28;20174;-62
2022/10/11 00:31:59;;;;;;;8.07;6.50;;;15.00;99.90;;;;;;5036783;28;20236;-63
2022/10/11 00:34:25;;;;;;;10.47;6.43;;;15.20;99.90;;;;;;5031489;28;20182;-62
2022/10/11 00:36:50;;;;;;;8.13;5.83;;;15.10;99.90;;;;;;5029985;28;20216;-63
2022/10/11 00:39:16;;;;;;;9.07;6.33;;;15.30;99.90;;;;;;5030882;28;20189;-63
2022/10/11 00:41:41;;;;;;;7.23;6.53;;;14.90;99.90;;;;;;5028251;28;20182;-62
2022/10/11 00:44:17;;;;;;;8.43;6.00;;;14.80;99.90;;;;;;5032608;28;20182;-63
2022/10/11 00:46:50;;;;;;;6.72;5.68;;;15.00;99.90;;;;;;5029007;28;20217;-62
2022/10/11 00:49:39;;;;;;;8.52;6.10;;;14.90;99.90;;;;;;5037348;28;20739;-63
2022/10/11 00:52:18;;;;;;;8.48;6.38;;;14.60;99.90;;;;;;5021746;28;20197;-63
2022/10/11 00:54:45;;;;;;;7.38;6.15;;;14.90;99.90;;;;;;5031833;28;20190;-62
2022/10/11 00:57:16;;;;;;;6.80;5.38;;;14.70;99.90;;;;;;5028126;28;20206;-62
2022/10/11 00:59:45;;;;;;;8.82;6.47;;;14.50;99.90;;;;;;5031636;28;20201;-61
2022/10/11 01:02:12;;;;;;;8.75;6.70;;;14.60;99.90;;;;;;5030575;28;20729;-61
2022/10/11 01:04:38;;;;;;;8.13;6.35;;;14.70;99.90;;;;;;5033213;28;20194;-61
2022/10/11 01:07:04;;;;;;;7.13;6.05;;;14.90;99.90;;;;;;5028508;28;20313;-63
2022/10/11 01:09:30;;;;;;;5.83;5.30;;;14.70;99.90;;;;;;5031618;28;20261;-63
2022/10/11 01:11:59;;;;;;;7.63;5.95;;;14.70;99.90;;;;;;5026680;28;20277;-62
2022/10/11 01:14:47;;;;;;;6.85;5.82;;;14.70;99.90;;;;;;5030532;28;20187;-61
2022/10/11 01:17:42;;;;;;;7.82;6.18;;;14.50;99.90;;;;;;5019464;28;20568;-61
2022/10/11 01:20:25;;;;;;;7.60;5.82;;;14.60;99.90;;;;;;5010185;28;20237;-63
2022/10/11 01:23:09;;;;;;;6.63;5.82;;;14.50;99.90;;;;;;5034433;28;20277;-63
2022/10/11 01:25:59;;;;;;;8.00;5.88;;;14.30;99.90;;;;;;5038214;28;20753;-63
2022/10/11 01:28:43;;;;;;;6.10;5.60;;;14.40;99.90;;;;;;5027104;28;20694;-61
2022/10/11 01:31:26;;;;;;;7.25;6.10;;;14.40;99.90;;;;;;5031413;28;20425;-61
2022/10/11 01:33:54;;;;;;;12.85;6.45;;;14.30;99.90;;;;;;5030642;28;20268;-63
2022/10/11 01:36:35;;;;;;;8.65;7.25;;;14.50;99.90;;;;;;5034192;28;20237;-62
2022/10/11 01:39:25;;;;;;;10.50;6.05;;;14.20;99.90;;;;;;5038275;28;20185;-63
2022/10/11 01:41:55;;;;;;;8.18;5.95;;;14.20;99.90;;;;;;5027322;28;20178;-63
2022/10/11 01:44:23;;;;;;;7.03;6.25;;;13.90;99.90;;;;;;5028588;28;20178;-63
2022/10/11 01:46:50;;;;;;;13.20;6.55;;;13.90;99.90;;;;;;5028867;28;20218;-63
2022/10/11 01:49:16;;;;;;;8.07;5.63;;;14.00;99.90;;;;;;5030874;28;20263;-63
2022/10/11 01:51:47;;;;;;;7.75;6.95;;;14.00;99.90;;;;;;5029519;28;20245;-63
2022/10/11 01:54:27;;;;;;;12.30;7.45;;;14.10;99.90;;;;;;5030300;28;20181;-63
2022/10/11 01:57:30;;;;;;;8.15;6.55;;;13.60;99.90;;;;;;5029367;28;20205;-63
2022/10/11 02:00:20;;;;;;;7.75;6.75;;;13.80;99.90;;;;;;5030701;28;20194;-63
2022/10/11 02:03:00;;;;;;;9.82;6.80;;;13.60;99.90;;;;;;5019194;28;20237;-63
2022/10/11 02:06:08;;;;;;;8.77;7.25;;;13.60;99.90;;;;;;5028586;28;22080;-63
2022/10/11 02:09:03;;;;;;;9.80;7.53;;;13.50;99.90;;;;;;5026145;28;20178;-63
2022/10/11 02:11:33;;;;;;;8.32;6.10;;;13.30;99.90;;;;;;5027772;28;20198;-63
2022/10/11 02:14:07;;;;;;;11.07;7.60;;;13.50;99.90;;;;;;5031137;28;20182;-63
2022/10/11 02:16:43;;;;;;;10.00;6.85;;;13.70;99.90;;;;;;5029304;28;20221;-63
2022/10/11 02:19:11;;;;;;;8.25;7.05;;;13.50;99.90;;;;;;5025049;28;20251;-63
2022/10/11 02:21:41;;;;;;;10.20;7.82;;;13.70;99.90;;;;;;5027464;28;20225;-63
2022/10/11 02:24:18;;;;;;;7.40;6.68;;;13.60;99.90;;;;;;5029427;28;20186;-63
2022/10/11 02:26:48;;;;;;;8.90;7.28;;;13.60;99.90;;;;;;5025420;28;20203;-63
2022/10/11 02:29:16;;;;;;;9.02;7.20;;;13.60;99.90;;;;;;5029074;28;20183;-61
2022/10/11 02:31:44;;;;;;;8.80;6.80;;;13.80;99.90;;;;;;5030484;28;20471;-63
2022/10/11 02:34:24;;;;;;;8.45;6.85;;;13.80;99.90;;;;;;5029188;28;20182;-61
2022/10/11 02:37:05;;;;;;;8.30;7.50;;;13.60;99.90;;;;;;5027442;28;20206;-63
2022/10/11 02:39:49;;;;;;;9.35;6.93;;;13.60;99.90;;;;;;5025113;28;20178;-63
2022/10/11 02:42:25;;;;;;;12.90;7.75;;;13.70;99.90;;;;;;5023332;28;20331;-63
2022/10/11 02:45:03;;;;;;;7.90;6.57;;;13.80;99.90;;;;;;5029721;28;20197;-63
2022/10/11 02:47:30;;;;;;;9.20;6.53;;;13.70;99.90;;;;;;5030564;28;20708;-63
2022/10/11 02:49:58;;;;;;;7.95;6.22;;;13.90;99.90;;;;;;5027791;28;21178;-63
2022/10/11 02:52:24;;;;;;;8.25;7.45;;;14.10;99.90;;;;;;5029615;28;20178;-63
2022/10/11 02:54:49;;;;;;;8.23;7.43;;;14.00;99.90;;;;;;5026395;28;20209;-63
2022/10/11 02:57:15;;;;;;;10.30;7.30;;;14.20;99.90;;;;;;5028997;28;20233;-63
2022/10/11 02:59:41;;;;;;;12.30;7.78;;;14.40;99.90;;;;;;5028998;28;20217;-63
2022/10/11 03:02:07;;;;;;;10.93;7.27;;;14.40;99.90;;;;;;5027465;28;20217;-63
2022/10/11 03:04:32;;;;;;;9.80;7.03;;;14.60;99.90;;;;;;5029792;28;20186;-63
2022/10/11 03:06:58;;;;;;;8.80;7.07;;;14.60;99.90;;;;;;5024783;28;20696;-63
2022/10/11 03:09:23;;;;;;;7.77;6.67;;;14.50;99.90;;;;;;5027638;28;20174;-63
2022/10/11 03:11:49;;;;;;;8.43;6.53;;;14.70;99.90;;;;;;5022791;28;20214;-63
2022/10/11 03:14:14;;;;;;;6.60;6.00;;;14.70;99.90;;;;;;5027701;28;20179;-63
2022/10/11 03:16:40;;;;;;;7.80;6.60;;;14.70;99.90;;;;;;5031329;28;20568;-63
2022/10/11 03:19:06;;;;;;;16.63;6.90;;;14.60;99.90;;;;;;5032321;28;20182;-63
2022/10/11 03:21:31;;;;;;;9.87;6.63;;;14.50;99.90;;;;;;5030677;28;20206;-63
2022/10/11 03:23:57;;;;;;;8.17;7.33;;;14.70;99.90;;;;;;5026159;28;20273;-60
2022/10/11 03:26:22;;;;;;;10.70;6.90;;;14.60;99.90;;;;;;5030107;28;20742;-63
2022/10/11 03:28:48;;;;;;;9.57;8.07;;;14.60;99.90;;;;;;5027334;28;20182;-63
2022/10/11 03:31:14;;;;;;;9.93;6.50;;;14.60;99.90;;;;;;5027681;28;20174;-63
2022/10/11 03:33:39;;;;;;;10.20;7.63;;;14.50;99.90;;;;;;5027430;28;20227;-63
2022/10/11 03:36:05;;;;;;;9.57;7.50;;;14.40;99.90;;;;;;5034025;28;20568;-63
2022/10/11 03:38:31;;;;;;;8.00;6.93;;;14.50;99.90;;;;;;5040604;28;20186;-63
2022/10/11 03:40:56;;;;;;;7.97;6.83;;;14.40;99.90;;;;;;5034398;28;20303;-63
2022/10/11 03:43:22;;;;;;;12.10;7.60;;;14.50;99.90;;;;;;5032042;28;20200;-63
2022/10/11 03:45:47;;;;;;;9.53;7.80;;;14.60;99.90;;;;;;5032582;28;20260;-63
2022/10/11 03:48:13;;;;;;;7.73;6.93;;;14.50;99.90;;;;;;5033188;28;20193;-63
2022/10/11 03:50:39;;;;;;;12.73;9.10;;;14.40;99.90;;;;;;5032384;28;20297;-63
2022/10/11 03:53:05;;;;;;;10.93;7.67;;;14.50;99.90;;;;;;5035132;28;20189;-63
2022/10/11 03:55:31;;;;;;;10.45;8.70;;;14.60;99.90;;;;;;5039032;28;20542;-63
2022/10/11 03:57:57;;;;;;;10.73;7.82;;;14.80;99.90;;;;;;5033483;28;20186;-63
2022/10/11 04:00:23;;;;;;;8.03;7.20;;;14.40;99.90;;;;;;5033602;28;20282;-62
2022/10/11 04:02:48;;;;;;;10.00;7.93;;;14.70;99.90;;;;;;5035477;28;20190;-62
2022/10/11 04:05:14;;;;;;;7.80;6.27;;;15.00;99.90;;;;;;5033869;28;20984;-62
2022/10/11 04:07:40;;;;;;;6.60;5.87;;;14.70;99.90;;;;;;5035458;28;20220;-63
2022/10/11 04:10:06;;;;;;;7.93;6.83;;;14.80;99.90;;;;;;5031583;28;20550;-62
2022/10/11 04:12:32;;;;;;;8.85;6.25;;;14.80;99.90;;;;;;5030398;28;20228;-63
2022/10/11 04:14:58;;;;;;;9.43;6.80;;;14.70;99.90;;;;;;5039373;28;20178;-62
2022/10/11 04:17:23;;;;;;;9.50;6.77;;;14.70;99.90;;;;;;5031235;28;20277;-63
2022/10/11 04:19:49;;;;;;;8.70;6.60;;;14.50;99.90;;;;;;5036462;28;20686;-63
2022/10/11 04:22:15;;;;;;;10.77;7.07;;;14.50;99.90;;;;;;5038128;28;20205;-62
2022/10/11 04:24:41;;;;;;;10.07;7.35;;;14.50;99.90;;;;;;5037889;28;20193;-62
2022/10/11 04:27:06;;;;;;;10.73;7.90;;;14.60;99.90;;;;;;5039242;28;20691;-63
2022/10/11 04:29:32;;;;;;;10.37;7.50;;;14.80;99.90;;;;;;5044848;28;20217;-63
2022/10/11 04:31:58;;;;;;;9.00;7.97;;;15.00;99.90;;;;;;5044176;28;20227;-66
2022/10/11 04:34:23;;;;;;;9.63;8.23;;;15.00;99.90;;;;;;5031903;28;20182;-63
2022/10/11 04:36:49;;;;;;;8.53;7.53;;;14.80;99.90;;;;;;5034293;28;20281;-63
2022/10/11 04:39:14;;;;;;;10.10;9.10;;;14.90;99.90;;;;;;5046442;28;20894;-62
2022/10/11 04:41:40;;;;;;;11.90;9.50;;;15.10;99.90;;;;;;5030679;28;20190;-63
2022/10/11 04:44:05;;;;;;;11.93;9.70;;;15.00;99.90;;;;;;5035098;28;20182;-62
2022/10/11 04:46:31;;;;;;;12.50;10.33;;;14.70;99.90;;;;;;5031624;28;20738;-63
2022/10/11 04:48:58;;;;;;;12.70;10.60;;;14.90;99.90;;;;;;5031922;28;20179;-62
2022/10/11 04:51:24;;;;;;;12.13;10.20;;;14.60;99.90;;;;;;5030712;28;20794;-63
2022/10/11 04:53:49;;;;;;;11.80;10.20;;;14.70;99.90;;;;;;5032408;28;20796;-63
2022/10/11 04:56:17;;;;;;;15.07;12.97;;;15.10;99.90;;;;;;5031495;28;20452;-63
2022/10/11 04:58:44;;;;;;;23.83;14.40;;;15.00;99.90;;;;;;5024520;28;20197;-63
2022/10/11 05:01:10;;;;;;;21.27;15.32;;;15.20;99.90;;;;;;5031104;28;20194;-62
2022/10/11 05:03:36;;;;;;;22.77;16.90;;;15.30;99.90;;;;;;5032520;28;20190;-63
2022/10/11 05:06:03;;;;;;;24.67;17.83;;;15.40;99.90;;;;;;5017935;28;20301;-63
2022/10/11 05:08:29;;;;;;;22.50;17.52;;;15.40;99.90;;;;;;5027302;28;20178;-63
2022/10/11 05:10:56;;;;;;;27.77;19.35;;;15.40;99.90;;;;;;5030941;28;20182;-63
2022/10/11 05:13:22;;;;;;;24.83;17.92;;;15.20;99.90;;;;;;5026112;28;20190;-64
2022/10/11 05:15:48;;;;;;;27.40;18.20;;;15.30;99.90;;;;;;5031690;28;20301;-63
2022/10/11 05:18:14;;;;;;;23.73;17.00;;;15.40;99.90;;;;;;5029021;28;20244;-63
2022/10/11 05:20:39;;;;;;;31.83;17.63;;;15.50;99.90;;;;;;5031834;28;20183;-63
2022/10/11 05:23:05;;;;;;;31.97;19.50;;;15.30;99.90;;;;;;5026478;28;20765;-63
2022/10/11 05:25:30;;;;;;;23.00;16.87;;;15.70;99.90;;;;;;5027915;28;20194;-63
2022/10/11 05:27:56;;;;;;;23.80;17.57;;;15.30;99.90;;;;;;5025693;28;20210;-63
2022/10/11 05:30:22;;;;;;;22.60;16.93;;;15.60;99.90;;;;;;5031423;28;20644;-70
2022/10/11 05:32:47;;;;;;;26.43;18.67;;;15.70;99.90;;;;;;5026723;28;20329;-72
2022/10/11 05:35:13;;;;;;;22.47;16.70;;;15.50;99.90;;;;;;5029662;28;20175;-71
2022/10/11 05:37:39;;;;;;;25.07;18.10;;;15.50;99.90;;;;;;5029146;28;20187;-76
2022/10/11 05:40:05;;;;;;;27.00;20.23;;;15.30;99.90;;;;;;5030107;28;20529;-75
2022/10/11 05:42:31;;;;;;;31.05;24.25;;;15.40;99.90;;;;;;5029268;28;20190;-76
2022/10/11 05:44:56;;;;;;;21.97;17.43;;;15.40;99.90;;;;;;5029874;28;20193;-76
2022/10/11 05:47:22;;;;;;;28.17;16.30;;;15.50;99.90;;;;;;5028258;28;20620;-71
2022/10/11 05:49:47;;;;;;;27.90;17.97;;;15.50;99.90;;;;;;5026899;28;20185;-69
2022/10/11 05:52:18;;;;;;;25.93;16.67;;;15.30;99.90;;;;;;5027004;28;20182;-68
2022/10/11 05:54:44;;;;;;;23.65;17.17;;;15.50;99.90;;;;;;5026383;28;20179;-68
2022/10/11 05:57:10;;;;;;;22.23;16.67;;;15.70;99.90;;;;;;5025980;28;20229;-68
2022/10/11 05:59:35;;;;;;;22.43;18.47;;;15.40;99.90;;;;;;5029805;28;20484;-68
2022/10/11 06:02:01;;;;;;;24.23;18.37;;;15.60;99.90;;;;;;5026338;28;20183;-68
2022/10/11 06:04:27;;;;;;;22.60;16.30;;;15.70;99.90;;;;;;5031477;28;20805;-68
2022/10/11 06:06:52;;;;;;;20.03;15.57;;;15.60;99.90;;;;;;5027368;28;20208;-54
2022/10/11 06:09:18;;;;;;;20.10;14.83;;;15.70;99.90;;;;;;5027707;28;20256;-55
2022/10/11 06:11:45;;;;;;;17.10;14.57;;;15.90;99.90;;;;;;5027598;28;20190;-54
2022/10/11 06:14:11;;;;;;;13.57;10.93;;;16.00;99.90;;;;;;5040893;28;20264;-60
2022/10/11 06:16:36;;;;;;;14.70;12.10;;;16.50;99.90;;;;;;5026668;28;20222;-58
2022/10/11 06:19:03;;;;;;;19.73;14.30;;;16.50;99.90;;;;;;5029249;28;20222;-77
2022/10/11 06:21:29;;;;;;;19.10;14.35;;;16.60;99.90;;;;;;5034163;28;20289;-80
2022/10/11 06:23:54;;;;;;;23.23;15.00;;;16.70;99.90;;;;;;5035200;28;20272;-76
2022/10/11 06:26:20;;;;;;;16.77;14.50;;;16.50;99.90;;;;;;5030805;28;20317;-78
2022/10/11 06:28:46;;;;;;;20.97;14.53;;;16.50;99.90;;;;;;5032582;28;20274;-78
2022/10/11 06:31:12;;;;;;;19.00;14.00;;;16.10;99.90;;;;;;5028652;28;20270;-75
2022/10/11 06:33:37;;;;;;;18.20;15.00;;;16.20;99.90;;;;;;5021592;28;20652;-74
2022/10/11 06:36:07;;;;;;;19.27;14.30;;;16.10;99.90;;;;;;5030104;28;20471;-75
2022/10/11 06:38:33;;;;;;;22.77;14.95;;;15.90;99.90;;;;;;5029291;28;20624;-74
2022/10/11 06:41:19;;;;;;;23.80;15.80;;;15.70;99.90;;;;;;5022764;28;20206;-74
2022/10/11 06:43:45;;;;;;;18.92;15.70;;;15.80;99.90;;;;;;5025330;28;20218;-75
2022/10/11 06:46:11;;;;;;;21.48;16.42;;;15.50;99.90;;;;;;5029207;28;20228;-75
2022/10/11 06:48:42;;;;;;;22.02;16.60;;;15.60;99.90;;;;;;5027510;28;20186;-75
2022/10/11 06:51:09;;;;;;;22.48;17.45;;;15.60;99.90;;;;;;5025762;28;20628;-74
2022/10/11 06:53:34;;;;;;;19.25;14.90;;;15.80;99.90;;;;;;5032999;28;20193;-72
2022/10/11 06:56:03;;;;;;;21.13;15.10;;;15.70;99.90;;;;;;5029878;28;20227;-77
2022/10/11 06:58:29;;;;;;;19.80;15.25;;;16.00;99.90;;;;;;5026139;28;20186;-79
2022/10/11 07:00:59;;;;;;;22.30;15.30;;;15.80;99.90;;;;;;5046817;28;20665;-76
2022/10/11 07:03:24;;;;;;;20.45;13.95;;;15.70;99.90;;;;;;5031497;28;20204;-73
2022/10/11 07:05:50;;;;;;;22.87;15.33;;;15.40;99.90;;;;;;5032411;28;20207;-77
2022/10/11 07:08:16;;;;;;;18.67;13.93;;;15.90;99.90;;;;;;5030847;28;20675;-72
2022/10/11 07:10:41;;;;;;;22.93;14.80;;;15.90;99.90;;;;;;5026875;28;20186;-72
2022/10/11 07:13:07;;;;;;;22.37;15.27;;;15.80;99.90;;;;;;5021037;28;20228;-71
2022/10/11 07:15:36;;;;;;;19.73;15.30;;;15.80;99.90;;;;;;5028481;28;20251;-70
2022/10/11 07:18:03;;;;;;;21.10;15.68;;;15.80;99.90;;;;;;5030996;28;20174;-78
2022/10/11 07:20:28;;;;;;;26.52;15.48;;;15.80;99.90;;;;;;5018604;28;20201;-72
2022/10/11 07:22:54;;;;;;;21.40;15.90;;;15.60;99.90;;;;;;5028921;28;20184;-76
2022/10/11 07:25:19;;;;;;;22.67;15.97;;;15.80;99.90;;;;;;5022368;28;20179;-71
2022/10/11 07:27:45;;;;;;;20.37;14.17;;;16.00;99.90;;;;;;5025274;28;20232;-71
2022/10/11 07:30:11;;;;;;;21.83;15.40;;;15.80;99.90;;;;;;5030795;28;20178;-70
2022/10/11 07:32:36;;;;;;;21.50;16.13;;;15.70;99.90;;;;;;5029463;28;20269;-72
2022/10/11 07:35:02;;;;;;;15.77;13.67;;;15.90;99.90;;;;;;5029014;28;20429;-75
2022/10/11 07:37:28;;;;;;;18.80;14.40;;;15.60;99.90;;;;;;5026447;28;20593;-69
2022/10/11 07:39:53;;;;;;;20.20;14.40;;;15.70;99.90;;;;;;5024562;28;20194;-72
2022/10/11 07:42:20;;;;;;;17.83;15.97;;;15.90;99.90;;;;;;5023138;28;20186;-62
2022/10/11 07:44:46;;;;;;;19.80;15.77;;;15.70;99.90;;;;;;5027969;28;20186;-62
2022/10/11 07:47:11;;;;;;;23.17;15.17;;;15.90;99.90;;;;;;5029019;28;20268;-62
2022/10/11 07:49:37;;;;;;;18.70;15.20;;;15.90;99.90;;;;;;5027673;28;20232;-71
2022/10/11 07:52:03;;;;;;;20.80;15.67;;;15.90;99.90;;;;;;5030344;28;20190;-72
2022/10/11 07:54:28;;;;;;;24.10;14.50;;;16.10;99.90;;;;;;5035515;28;20599;-77
2022/10/11 07:56:54;;;;;;;22.27;15.87;;;15.80;99.90;;;;;;5022627;28;20968;-60
2022/10/11 07:59:19;;;;;;;18.90;16.20;;;16.00;99.90;;;;;;5028758;28;20269;-60
2022/10/11 08:01:45;;;;;;;18.17;15.13;;;15.90;99.90;;;;;;5025890;28;20664;-69
2022/10/11 08:04:11;;;;;;;21.43;16.50;;;15.80;99.90;;;;;;5022128;28;20217;-62
2022/10/11 08:06:37;;;;;;;20.83;15.05;;;16.10;99.90;;;;;;5031210;28;20300;-69
2022/10/11 08:09:04;;;;;;;20.00;15.20;;;16.00;99.90;;;;;;5039064;28;20605;-76
2022/10/11 08:11:36;;;;;;;18.75;15.43;;;16.10;99.90;;;;;;5048782;28;20240;-73
2022/10/11 08:14:07;;;;;;;17.83;14.15;;;16.00;99.90;;;;;;5026458;28;20214;-77
2022/10/11 08:16:34;;;;;;;17.17;14.57;;;16.20;99.90;;;;;;5021578;28;20671;-75
2022/10/11 08:19:01;;;;;;;15.80;14.10;;;16.30;99.90;;;;;;5023352;28;20718;-73
2022/10/11 08:21:27;;;;;;;20.30;15.50;;;16.20;99.90;;;;;;5035586;28;20202;-74
2022/10/11 08:23:53;;;;;;;16.93;14.37;;;16.30;99.90;;;;;;5032117;28;20183;-73
2022/10/11 08:26:18;;;;;;;22.20;15.57;;;16.40;99.90;;;;;;5030273;28;20205;-71
2022/10/11 08:28:44;;;;;;;16.80;14.20;;;16.50;99.90;;;;;;5029947;28;20178;-76
2022/10/11 08:31:13;;;;;;;18.30;15.20;;;16.30;99.90;;;;;;5031259;28;20640;-63
2022/10/11 08:33:40;;;;;;;17.70;14.77;;;16.10;99.90;;;;;;5032511;28;20212;-63
2022/10/11 08:36:06;;;;;;;22.60;17.17;;;15.90;99.90;;;;;;5026497;28;20202;-63
2022/10/11 08:38:32;;;;;;;20.50;16.95;;;16.30;99.90;;;;;;5031603;28;20190;-63
2022/10/11 08:40:59;;;;;;;18.00;14.02;;;16.50;99.90;;;;;;5032137;28;20217;-63
2022/10/11 08:43:31;;;;;;;14.98;13.48;;;16.50;99.90;;;;;;5034823;28;20177;-63
2022/10/11 08:46:00;;;;;;;23.05;14.32;;;16.50;99.90;;;;;;5031824;28;20206;-63
2022/10/11 08:48:31;;;;;;;18.15;14.93;;;16.30;99.90;;;;;;5032265;28;20185;-63
2022/10/11 08:50:58;;;;;;;19.63;14.45;;;16.30;99.90;;;;;;5027299;28;20183;-63
2022/10/11 08:53:35;;;;;;;17.42;15.05;;;16.30;99.90;;;;;;5031567;28;20233;-63
2022/10/11 08:56:02;;;;;;;19.92;14.63;;;16.40;99.90;;;;;;5028742;28;20202;-63
2022/10/11 08:58:40;;;;;;;24.60;16.40;;;16.50;99.90;;;;;;5027590;28;20182;-64
2022/10/11 09:01:19;;;;;;;18.35;16.35;;;16.50;99.90;;;;;;5027190;28;20181;-64
2022/10/11 09:03:46;;;;;;;16.75;14.93;;;16.30;99.90;;;;;;5027054;28;20195;-63
2022/10/11 09:06:23;;;;;;;21.67;17.38;;;16.20;99.90;;;;;;5028613;28;20241;-64
2022/10/11 09:09:22;;;;;;;24.63;17.35;;;16.30;99.90;;;;;;5030757;28;20184;-64
2022/10/11 09:12:13;;;;;;;22.80;16.17;;;15.90;99.90;;;;;;5029099;28;20276;-76
2022/10/11 09:14:57;;;;;;;21.13;16.20;;;16.10;99.90;;;;;;5031556;28;20190;-74
2022/10/11 09:17:28;;;;;;;23.77;15.85;;;16.20;99.90;;;;;;5036292;28;20201;-73
2022/10/11 09:20:05;;;;;;;23.55;15.68;;;16.30;99.90;;;;;;5034363;28;20197;-72
2022/10/11 09:22:49;;;;;;;20.75;15.55;;;16.30;99.90;;;;;;5030131;28;20198;-74
2022/10/11 09:25:23;;;;;;;20.52;15.05;;;16.30;99.90;;;;;;5032234;28;20651;-73
2022/10/11 09:28:09;;;;;;;20.48;15.23;;;16.30;99.90;;;;;;5028971;28;20189;-73
2022/10/11 09:30:39;;;;;;;26.58;16.23;;;16.30;99.90;;;;;;5028819;28;20199;-73
2022/10/11 09:33:34;;;;;;;20.65;15.18;;;16.30;99.90;;;;;;5028223;28;20206;-71
2022/10/11 09:36:11;;;;;;;20.40;16.42;;;16.20;99.90;;;;;;5030075;28;20206;-78
2022/10/11 09:38:50;;;;;;;19.27;15.55;;;16.20;99.90;;;;;;5030883;28;20714;-73
2022/10/11 09:41:41;;;;;;;21.83;15.63;;;16.80;99.90;;;;;;5020320;28;20182;-75
2022/10/11 09:44:14;;;;;;;25.50;18.77;;;16.40;99.90;;;;;;5031077;28;20178;-75
2022/10/11 09:46:42;;;;;;;21.17;16.45;;;16.30;99.90;;;;;;5028522;28;20194;-74
2022/10/11 09:49:14;;;;;;;19.42;16.65;;;16.20;99.90;;;;;;5028150;28;20190;-76
2022/10/11 09:51:49;;;;;;;22.38;15.90;;;16.40;99.90;;;;;;5028515;28;20649;-76
2022/10/11 09:54:17;;;;;;;21.33;16.33;;;16.30;99.90;;;;;;5032902;28;20775;-78
2022/10/11 09:56:44;;;;;;;25.55;20.58;;;16.40;99.90;;;;;;5032689;28;20236;-80
2022/10/11 09:59:30;;;;;;;24.02;19.25;;;16.40;99.90;;;;;;5028862;28;20210;-78
2022/10/11 10:02:11;;;;;;;22.60;16.30;;;16.60;99.90;;;;;;5030362;28;20296;-79
2022/10/11 10:05:02;;;;;;;17.60;14.23;;;16.50;99.90;;;;;;5032920;28;20192;-79
2022/10/11 10:07:29;;;;;;;19.52;15.27;;;16.70;99.90;;;;;;5020398;28;20226;-77
2022/10/11 10:09:56;;;;;;;29.88;16.58;;;16.70;99.90;;;;;;5029529;28;20651;-76
2022/10/11 10:12:26;;;;;;;18.15;15.23;;;16.50;99.90;;;;;;5027455;28;20202;-75
2022/10/11 10:15:12;;;;;;;22.05;16.08;;;16.70;99.90;;;;;;5032008;28;20181;-77
2022/10/11 10:17:38;;;;;;;20.95;16.15;;;16.80;99.90;;;;;;5033863;28;20182;-77
2022/10/11 10:20:05;;;;;;;20.30;16.73;;;16.70;99.90;;;;;;5036134;28;20462;-74
2022/10/11 10:22:34;;;;;;;21.95;16.38;;;16.70;99.90;;;;;;5030659;28;20571;-73
2022/10/11 10:25:04;;;;;;;21.60;15.25;;;16.60;99.90;;;;;;5018130;28;20193;-74
2022/10/11 10:27:31;;;;;;;19.55;16.15;;;16.60;99.90;;;;;;5021054;28;20198;-73
2022/10/11 10:30:12;;;;;;;18.88;14.90;;;16.50;99.90;;;;;;5029772;28;20185;-70
2022/10/11 10:32:47;;;;;;;21.33;15.70;;;17.00;99.90;;;;;;5028108;28;20206;-71
2022/10/11 10:35:33;;;;;;;22.48;15.98;;;16.70;99.90;;;;;;5027908;28;20190;-69
2022/10/11 10:38:33;;;;;;;21.48;16.25;;;16.80;99.90;;;;;;5027425;28;20227;-71
2022/10/11 10:41:04;;;;;;;21.45;16.50;;;16.70;99.90;;;;;;5010641;28;20206;-66
2022/10/11 10:43:36;;;;;;;21.00;15.88;;;16.70;99.90;;;;;;5027220;28;20682;-67
2022/10/11 10:46:13;;;;;;;20.20;16.42;;;16.80;99.90;;;;;;5030086;28;20321;-69
2022/10/11 10:49:08;;;;;;;19.98;15.23;;;16.70;99.90;;;;;;5024929;28;20174;-70
2022/10/11 10:51:33;;;;;;;23.38;15.98;;;16.70;99.90;;;;;;5018013;28;20258;-60
2022/10/11 10:54:26;;;;;;;20.73;15.23;;;16.70;99.90;;;;;;5026739;28;20192;-60
2022/10/11 10:56:57;;;;;;;22.50;16.73;;;16.90;99.90;;;;;;5026838;28;20293;-60
2022/10/11 10:59:31;;;;;;;19.90;14.95;;;16.90;99.90;;;;;;5024675;28;20190;-61
2022/10/11 11:02:22;;;;;;;22.45;15.98;;;16.70;99.90;;;;;;5026917;28;20197;-62
2022/10/11 11:05:05;;;;;;;18.48;14.30;;;16.90;99.90;;;;;;5026311;28;20210;-61
2022/10/11 11:07:48;;;;;;;25.75;16.60;;;16.90;99.90;;;;;;5019459;28;20932;-61
2022/10/11 11:10:25;;;;;;;20.67;14.43;;;16.90;99.90;;;;;;5024594;28;20329;-61
2022/10/11 11:12:57;;;;;;;17.63;14.65;;;17.30;99.90;;;;;;5024432;28;20300;-61
2022/10/11 11:15:41;;;;;;;19.60;17.13;;;16.90;99.90;;;;;;5026944;28;20186;-61
2022/10/11 11:18:27;;;;;;;17.38;14.40;;;17.00;99.90;;;;;;5023740;28;20726;-61
2022/10/11 11:21:10;;;;;;;17.08;15.05;;;17.00;99.90;;;;;;5024732;28;20233;-61
2022/10/11 11:23:48;;;;;;;18.35;14.93;;;17.20;99.90;;;;;;5027858;28;20621;-65
2022/10/11 11:26:43;;;;;;;19.55;14.52;;;17.30;99.90;;;;;;5026209;28;20583;-61
2022/10/11 11:29:19;;;;;;;18.85;15.20;;;17.50;99.90;;;;;;5024769;28;20212;-61
2022/10/11 11:32:05;;;;;;;16.85;13.70;;;17.10;99.90;;;;;;5026360;28;20261;-61
2022/10/11 11:34:45;;;;;;;14.40;12.40;;;17.20;99.90;;;;;;5020827;28;20186;-60
2022/10/11 11:37:22;;;;;;;18.10;14.18;;;17.30;99.90;;;;;;5018996;28;20566;-70
2022/10/11 11:39:51;;;;;;;17.08;13.90;;;16.50;99.90;;;;;;5028800;28;20186;-73
2022/10/11 11:42:33;;;;;;;21.02;14.23;;;16.90;99.90;;;;;;5021696;28;20190;-78
2022/10/11 11:45:14;;;;;;;15.45;13.85;;;17.10;99.90;;;;;;5029385;28;20186;-68
2022/10/11 11:47:42;;;;;;;18.30;14.48;;;16.70;99.90;;;;;;5028662;28;20208;-67
2022/10/11 11:50:24;;;;;;;18.73;14.32;;;16.90;99.90;;;;;;5024665;28;20174;-68
2022/10/11 11:52:54;;;;;;;21.45;13.70;;;17.10;99.90;;;;;;5028689;28;20305;-63
2022/10/11 11:55:51;;;;;;;18.55;14.38;;;17.00;99.90;;;;;;5026001;28;20183;-63
2022/10/11 11:58:28;;;;;;;17.30;12.10;;;17.00;99.90;;;;;;5021123;28;20182;-68
2022/10/11 12:01:05;;;;;;;19.40;13.50;;;17.10;99.90;;;;;;5032451;28;20212;-68
2022/10/11 12:03:37;;;;;;;16.58;13.75;;;16.90;99.90;;;;;;5034134;28;20210;-66
2022/10/11 12:06:12;;;;;;;16.98;14.25;;;17.10;99.90;;;;;;5029858;28;20205;-69
2022/10/11 12:08:46;;;;;;;15.43;11.98;;;17.30;99.90;;;;;;5036846;28;20178;-68
2022/10/11 12:11:25;;;;;;;16.23;13.18;;;17.30;99.90;;;;;;5035764;28;20195;-68
2022/10/11 12:13:52;;;;;;;17.35;14.27;;;17.40;99.90;;;;;;5029002;28;20508;-66
2022/10/11 12:16:19;;;;;;;20.08;14.55;;;17.50;99.90;;;;;;5030954;28;20278;-62
2022/10/11 12:19:00;;;;;;;16.40;12.20;;;17.60;99.90;;;;;;5032335;28;20186;-67
2022/10/11 12:21:38;;;;;;;14.02;11.93;;;17.70;99.90;;;;;;5028026;28;20206;-67
2022/10/11 12:24:14;;;;;;;13.40;11.00;;;17.80;99.90;;;;;;5028924;28;20190;-69
2022/10/11 12:26:49;;;;;;;18.45;13.65;;;17.90;99.90;;;;;;5029410;28;20259;-68
2022/10/11 12:29:17;;;;;;;15.00;12.45;;;17.80;99.90;;;;;;5028495;28;20174;-63
2022/10/11 12:32:06;;;;;;;13.98;12.05;;;17.90;99.90;;;;;;5044672;28;20190;-63
2022/10/11 12:34:39;;;;;;;13.23;11.05;;;18.00;99.90;;;;;;5010870;28;20202;-63
2022/10/11 12:37:24;;;;;;;13.20;11.70;;;17.80;99.90;;;;;;5020508;28;20253;-63
2022/10/11 12:39:54;;;;;;;18.15;13.10;;;18.10;99.90;;;;;;5031336;28;20190;-63
2022/10/11 12:42:30;;;;;;;13.80;12.15;;;17.90;99.90;;;;;;5028323;28;20193;-63
2022/10/11 12:45:11;;;;;;;15.10;12.40;;;17.90;99.90;;;;;;5038033;28;20578;-63
2022/10/11 12:47:50;;;;;;;15.30;12.43;;;17.60;99.90;;;;;;5032492;28;20212;-64
2022/10/11 12:50:32;;;;;;;14.57;12.38;;;17.90;99.90;;;;;;5052936;28;20173;-63
2022/10/11 12:53:16;;;;;;;16.45;12.65;;;17.70;99.90;;;;;;5029249;28;20267;-63